Time;durP1;ratioP1;P1;durP2;ratioP2;P2;SDS_P1;SDS_P2;PMS_P1;PMS_P2;Temp;Humidity;BMP_temperature;BMP_pressure;BME280_temperature;BME280_humidity;BME280_pressure;Samples;Min_cycle;Max_cycle;Signal;HPM_P1;HPM_P2
2023/10/17 00:02:16;;;;;;;1.27;0.93;;;;;;;;;;6272891;22;20652;-77
2023/10/17 00:04:42;;;;;;;1.67;0.77;;;;;;;;;;6246945;22;20011;-77
2023/10/17 00:07:08;;;;;;;1.10;0.70;;;;;;;;;;6272517;22;20412;-77
2023/10/17 00:09:37;;;;;;;1.10;0.60;;;;;;;;;;6273919;22;20012;-77
2023/10/17 00:14:45;;;;;;;1.00;0.60;;;;;;;;;;6273727;22;20016;-77
2023/10/17 00:17:16;;;;;;;1.60;0.57;;;;;;;;;;6245792;22;20019;-77
2023/10/17 00:19:42;;;;;;;1.02;0.77;;;;;;;;;;6274046;22;20015;-77
2023/10/17 00:22:23;;;;;;;2.88;0.70;;;;;;;;;;6272511;22;20034;-77
2023/10/17 00:25:01;;;;;;;0.70;0.43;;;;;;;;;;6246121;22;20042;-77
2023/10/17 00:27:27;;;;;;;0.70;0.70;;;;;;;;;;6273483;22;20007;-77
2023/10/17 00:29:53;;;;;;;4.18;0.90;;;;;;;;;;6273804;22;20012;-77
2023/10/17 00:32:19;;;;;;;2.53;0.60;;;;;;;;;;6272651;22;20065;-77
2023/10/17 00:34:46;;;;;;;1.70;0.98;;;;;;;;;;6272909;22;20022;-77
2023/10/17 00:37:14;;;;;;;0.90;0.70;;;;;;;;;;6245592;22;20007;-77
2023/10/17 00:39:40;;;;;;;2.17;0.88;;;;;;;;;;6246816;22;20012;-77
2023/10/17 00:44:33;;;;;;;1.35;0.70;;;;;;;;;;6273596;22;20460;-77
2023/10/17 00:47:00;;;;;;;1.45;0.73;;;;;;;;;;6273302;22;20083;-77
2023/10/17 00:49:29;;;;;;;0.85;0.50;;;;;;;;;;6245514;22;20039;-77
2023/10/17 00:51:59;;;;;;;1.02;0.77;;;;;;;;;;6273064;22;20015;-77
2023/10/17 00:54:25;;;;;;;1.42;0.90;;;;;;;;;;6273212;22;20016;-77
2023/10/17 00:57:00;;;;;;;1.55;0.98;;;;;;;;;;6273982;22;20011;-77
2023/10/17 00:59:35;;;;;;;0.98;0.60;;;;;;;;;;6275383;22;20378;-77
2023/10/17 01:02:08;;;;;;;2.22;0.77;;;;;;;;;;6274703;22;20020;-77
2023/10/17 01:04:34;;;;;;;0.98;0.85;;;;;;;;;;6274543;22;20334;-77
2023/10/17 01:07:06;;;;;;;1.67;1.20;;;;;;;;;;6274896;22;20027;-77
2023/10/17 01:09:36;;;;;;;2.67;0.73;;;;;;;;;;6275486;22;20024;-77
2023/10/17 01:12:08;;;;;;;2.03;0.70;;;;;;;;;;6274635;22;20019;-77
2023/10/17 01:14:35;;;;;;;0.68;0.68;;;;;;;;;;6275195;22;20314;-77
2023/10/17 01:17:05;;;;;;;1.85;0.68;;;;;;;;;;6248428;22;20082;-77
2023/10/17 01:19:33;;;;;;;1.15;0.77;;;;;;;;;;6247695;22;20011;-77
2023/10/17 01:21:59;;;;;;;1.80;0.90;;;;;;;;;;6248035;22;20133;-77
2023/10/17 01:24:28;;;;;;;2.15;0.80;;;;;;;;;;6274673;22;20598;-77
2023/10/17 01:26:54;;;;;;;1.33;1.00;;;;;;;;;;6247621;22;20012;-77
2023/10/17 01:29:21;;;;;;;0.85;0.70;;;;;;;;;;6275073;22;20329;-77
2023/10/17 01:31:55;;;;;;;1.35;0.65;;;;;;;;;;6222728;22;20461;-77
2023/10/17 01:34:21;;;;;;;1.20;0.70;;;;;;;;;;6247609;22;20011;-77
2023/10/17 01:36:47;;;;;;;1.02;0.50;;;;;;;;;;6247929;22;20020;-77
2023/10/17 01:39:13;;;;;;;1.75;0.77;;;;;;;;;;6274171;22;20125;-77
2023/10/17 01:41:46;;;;;;;1.02;0.68;;;;;;;;;;6274849;22;20445;-77
2023/10/17 01:44:12;;;;;;;0.68;0.50;;;;;;;;;;6274531;22;20022;-77
2023/10/17 01:46:39;;;;;;;0.63;0.63;;;;;;;;;;6247595;22;20097;-77
2023/10/17 01:49:11;;;;;;;1.30;0.50;;;;;;;;;;6274607;22;20026;-77
2023/10/17 01:51:41;;;;;;;1.10;0.68;;;;;;;;;;6248078;22;20016;-77
2023/10/17 01:54:14;;;;;;;1.20;0.70;;;;;;;;;;6247236;22;20019;-77
2023/10/17 01:56:40;;;;;;;1.00;0.50;;;;;;;;;;6275488;22;20015;-77
2023/10/17 01:59:13;;;;;;;0.40;0.40;;;;;;;;;;6246828;22;20012;-77
2023/10/17 02:01:42;;;;;;;2.47;0.57;;;;;;;;;;6274879;22;20020;-77
2023/10/17 02:04:18;;;;;;;1.35;0.60;;;;;;;;;;6273665;22;20918;-77
2023/10/17 02:06:47;;;;;;;1.55;0.57;;;;;;;;;;6247192;22;20059;-77
2023/10/17 02:12:00;;;;;;;0.40;0.40;;;;;;;;;;6246937;22;20011;-77
2023/10/17 02:14:26;;;;;;;0.40;0.40;;;;;;;;;;6247818;22;20440;-77
2023/10/17 02:16:55;;;;;;;0.43;0.40;;;;;;;;;;6247671;22;20015;-77
2023/10/17 02:19:25;;;;;;;1.30;0.50;;;;;;;;;;6275251;22;20016;-77
2023/10/17 02:21:51;;;;;;;;;;;;;;;;;;6275286;22;20016;-77
2023/10/17 02:24:20;;;;;;;0.20;0.20;;;;;;;;;;6273653;22;19943;-77
2023/10/17 02:26:56;;;;;;;0.45;0.20;;;;;;;;;;6247440;22;20456;-77
2023/10/17 02:29:26;;;;;;;0.50;0.50;;;;;;;;;;6275396;22;20333;-77
2023/10/17 02:32:01;;;;;;;1.58;0.40;;;;;;;;;;6274150;22;20015;-77
2023/10/17 02:34:30;;;;;;;0.82;0.40;;;;;;;;;;6247494;22;20024;-77
2023/10/17 02:36:56;;;;;;;0.40;0.30;;;;;;;;;;6274336;22;20016;-77
2023/10/17 02:39:22;;;;;;;0.60;0.30;;;;;;;;;;6221608;22;20015;-77
2023/10/17 02:42:08;;;;;;;0.45;0.35;;;;;;;;;;6275074;22;20016;-77
2023/10/17 02:44:34;;;;;;;2.33;0.38;;;;;;;;;;6273767;22;20572;-77
2023/10/17 02:47:01;;;;;;;0.57;0.40;;;;;;;;;;6274426;22;20012;-77
2023/10/17 02:49:36;;;;;;;0.50;0.30;;;;;;;;;;6274856;22;20333;-77
2023/10/17 02:52:02;;;;;;;0.50;0.30;;;;;;;;;;6274076;22;20030;-77
2023/10/17 02:54:28;;;;;;;0.93;0.38;;;;;;;;;;6246456;22;20348;-77
2023/10/17 02:56:54;;;;;;;0.30;0.30;;;;;;;;;;6273746;22;20016;-77
2023/10/17 02:59:21;;;;;;;0.40;0.30;;;;;;;;;;6273627;22;20086;-77
2023/10/17 03:01:53;;;;;;;0.68;0.40;;;;;;;;;;6274207;22;20011;-77
2023/10/17 03:04:23;;;;;;;0.50;0.30;;;;;;;;;;6274194;22;20015;-77
2023/10/17 03:06:49;;;;;;;;;;;;;;;;;;6247667;22;20395;-77
2023/10/17 03:09:38;;;;;;;0.80;0.50;;;;;;;;;;6273186;22;19915;-77
2023/10/17 03:15:17;;;;;;;0.40;0.30;;;;;;;;;;6246483;22;20450;-77
2023/10/17 03:17:27;;;;;;;0.85;0.52;;;;;;;;;;6245842;22;20012;-77
2023/10/17 03:19:53;;;;;;;0.63;0.43;;;;;;;;;;6273737;22;20118;-77
2023/10/17 03:22:27;;;;;;;0.73;0.60;;;;;;;;;;6273572;22;20405;-77
2023/10/17 03:25:01;;;;;;;0.73;0.50;;;;;;;;;;6221723;22;20387;-77
2023/10/17 03:27:36;;;;;;;0.60;0.50;;;;;;;;;;6246943;22;20015;-77
2023/10/17 03:30:08;;;;;;;1.08;0.40;;;;;;;;;;6273303;22;20008;-77
2023/10/17 03:32:34;;;;;;;0.50;0.40;;;;;;;;;;6273499;22;20023;-77
2023/10/17 03:35:03;;;;;;;0.52;0.43;;;;;;;;;;6272935;22;20461;-77
2023/10/17 03:37:29;;;;;;;1.58;0.68;;;;;;;;;;6246339;22;20008;-77
2023/10/17 03:39:56;;;;;;;1.08;0.32;;;;;;;;;;6274121;22;20016;-77
2023/10/17 03:42:41;;;;;;;0.65;0.55;;;;;;;;;;6273904;22;20046;-77
2023/10/17 03:45:23;;;;;;;0.98;0.45;;;;;;;;;;6246100;22;20046;-77
2023/10/17 03:48:36;;;;;;;1.05;0.52;;;;;;;;;;6221212;22;20012;-77
2023/10/17 03:50:48;;;;;;;2.28;1.00;;;;;;;;;;6230306;22;20015;-77
2023/10/17 03:55:44;;;;;;;2.50;0.80;;;;;;;;;;6246954;22;20020;-77
2023/10/17 04:00:52;;;;;;;2.30;0.77;;;;;;;;;;6274329;22;20016;-77
2023/10/17 04:05:51;;;;;;;2.25;0.82;;;;;;;;;;6246708;22;20483;-77
2023/10/17 04:08:31;;;;;;;1.88;0.90;;;;;;;;;;6246049;22;20087;-77
2023/10/17 04:13:49;;;;;;;1.33;0.98;;;;;;;;;;6245639;22;20019;-76
2023/10/17 04:16:17;;;;;;;2.00;1.05;;;;;;;;;;6220744;22;20022;-76
2023/10/17 04:18:48;;;;;;;1.98;0.82;;;;;;;;;;6221984;22;20464;-76
2023/10/17 04:21:36;;;;;;;1.13;0.90;;;;;;;;;;6246107;22;20026;-76
2023/10/17 04:24:06;;;;;;;1.90;1.10;;;;;;;;;;6246423;22;20012;-77
2023/10/17 04:26:35;;;;;;;1.35;1.00;;;;;;;;;;6245960;22;20022;-77
2023/10/17 04:29:11;;;;;;;1.35;1.00;;;;;;;;;;6245919;22;20406;-77
2023/10/17 04:31:43;;;;;;;2.45;1.08;;;;;;;;;;6246396;22;20027;-77
2023/10/17 04:34:14;;;;;;;1.30;1.00;;;;;;;;;;6273656;22;20012;-77
2023/10/17 04:36:41;;;;;;;3.35;0.80;;;;;;;;;;6274195;22;20042;-77
2023/10/17 04:39:34;;;;;;;1.80;1.10;;;;;;;;;;6246279;22;20039;-77
2023/10/17 04:44:50;;;;;;;2.28;0.90;;;;;;;;;;6273829;22;20020;-77
2023/10/17 04:47:27;;;;;;;1.13;0.80;;;;;;;;;;6245279;22;20082;-76
2023/10/17 04:49:54;;;;;;;1.50;0.90;;;;;;;;;;6246542;22;20015;-76
2023/10/17 04:52:29;;;;;;;1.45;0.80;;;;;;;;;;6273561;22;20091;-76
2023/10/17 04:55:01;;;;;;;1.65;1.10;;;;;;;;;;6245680;22;20399;-76
2023/10/17 04:57:55;;;;;;;2.22;1.20;;;;;;;;;;6272665;22;20024;-77
2023/10/17 05:00:25;;;;;;;1.83;0.88;;;;;;;;;;6272633;22;20138;-77
2023/10/17 05:03:13;;;;;;;1.83;1.08;;;;;;;;;;6246474;22;20015;-77
2023/10/17 05:05:45;;;;;;;2.17;1.23;;;;;;;;;;6273671;22;20353;-77
2023/10/17 05:08:17;;;;;;;2.03;1.20;;;;;;;;;;6245112;22;20030;-77
2023/10/17 06:16:51;;;;;;;2.72;1.70;;;;;;;;;;6274436;22;20051;-77
2023/10/17 06:19:21;;;;;;;2.78;1.30;;;;;;;;;;6246229;22;20026;-77
2023/10/17 06:28:20;;;;;;;2.33;1.60;;;;;;;;;;6269844;22;20034;-77
2023/10/17 06:32:49;;;;;;;2.40;2.03;;;;;;;;;;6274933;22;20023;-77
2023/10/17 06:35:22;;;;;;;2.47;1.90;;;;;;;;;;6273655;22;20016;-77
2023/10/17 06:37:49;;;;;;;3.38;1.60;;;;;;;;;;6246093;22;20016;-77
2023/10/17 06:40:18;;;;;;;2.65;1.75;;;;;;;;;;6273325;22;20026;-76
2023/10/17 06:42:59;;;;;;;3.20;1.85;;;;;;;;;;6273232;22;20019;-76
2023/10/17 06:45:25;;;;;;;2.80;1.80;;;;;;;;;;6274152;22;20096;-77
2023/10/17 06:47:57;;;;;;;1.73;1.60;;;;;;;;;;6272882;22;20049;-77
2023/10/17 06:53:11;;;;;;;3.30;1.90;;;;;;;;;;6270886;22;20043;-77
2023/10/17 06:55:43;;;;;;;2.92;1.83;;;;;;;;;;6272203;22;20443;-77
2023/10/17 06:58:14;;;;;;;3.17;1.70;;;;;;;;;;6273192;22;20051;-77
2023/10/17 07:01:00;;;;;;;2.78;1.50;;;;;;;;;;6274557;22;20020;-77
2023/10/17 07:03:26;;;;;;;4.55;2.13;;;;;;;;;;6246243;22;20081;-77
2023/10/17 07:05:55;;;;;;;2.80;1.50;;;;;;;;;;6272021;22;20037;-77
2023/10/17 07:08:21;;;;;;;1.88;1.30;;;;;;;;;;6246568;22;20353;-77
2023/10/17 07:11:02;;;;;;;4.00;1.63;;;;;;;;;;6246711;22;20022;-77
2023/10/17 07:13:49;;;;;;;3.13;1.80;;;;;;;;;;6273017;22;20012;-77
2023/10/17 07:16:25;;;;;;;3.25;2.03;;;;;;;;;;6273248;22;20019;-78
2023/10/17 07:18:55;;;;;;;3.85;1.88;;;;;;;;;;6274569;22;20058;-77
2023/10/17 07:21:24;;;;;;;3.75;1.85;;;;;;;;;;6273239;22;20012;-77
2023/10/17 07:23:54;;;;;;;2.67;2.10;;;;;;;;;;6246805;22;20019;-77
2023/10/17 07:28:56;;;;;;;4.20;2.17;;;;;;;;;;6246647;22;20408;-77
2023/10/17 07:31:22;;;;;;;4.60;2.53;;;;;;;;;;6246455;22;20043;-77
2023/10/17 07:34:16;;;;;;;3.97;2.90;;;;;;;;;;6247413;22;20016;-77
2023/10/17 07:36:44;;;;;;;2.70;2.17;;;;;;;;;;6247122;22;20030;-77
2023/10/17 07:39:23;;;;;;;4.15;2.40;;;;;;;;;;6246586;22;20054;-77
2023/10/17 07:41:55;;;;;;;6.15;2.60;;;;;;;;;;6246215;22;20043;-78
2023/10/17 07:44:25;;;;;;;3.17;2.75;;;;;;;;;;6249469;22;20016;-79
2023/10/17 07:47:08;;;;;;;2.40;2.15;;;;;;;;;;6247557;22;20047;-78
2023/10/17 07:49:35;;;;;;;5.55;2.60;;;;;;;;;;6247804;22;20078;-78
2023/10/17 07:52:23;;;;;;;4.07;2.97;;;;;;;;;;6247626;22;20097;-78
2023/10/17 07:54:57;;;;;;;4.32;2.15;;;;;;;;;;6250661;22;20015;-79
2023/10/17 07:57:28;;;;;;;4.03;2.78;;;;;;;;;;6223897;22;20073;-77
2023/10/17 07:59:57;;;;;;;3.88;2.78;;;;;;;;;;6218770;22;20103;-78
2023/10/17 08:02:30;;;;;;;6.47;2.90;;;;;;;;;;6246585;22;20015;-80
2023/10/17 08:05:00;;;;;;;3.42;2.35;;;;;;;;;;6227698;22;20015;-79
2023/10/17 08:07:29;;;;;;;3.80;2.50;;;;;;;;;;6246620;22;20048;-79
2023/10/17 08:09:58;;;;;;;3.08;2.45;;;;;;;;;;6278190;22;20026;-80
2023/10/17 08:12:24;;;;;;;2.53;1.88;;;;;;;;;;6251853;22;20137;-79
2023/10/17 08:15:19;;;;;;;7.30;2.40;;;;;;;;;;6251962;22;20322;-79
2023/10/17 08:17:45;;;;;;;4.68;2.20;;;;;;;;;;6279758;22;20062;-79
2023/10/17 08:20:45;;;;;;;2.92;1.83;;;;;;;;;;6278886;22;20028;-79
2023/10/17 08:23:06;;;;;;;3.53;2.30;;;;;;;;;;6280582;22;20012;-79
2023/10/17 08:25:39;;;;;;;2.95;2.28;;;;;;;;;;6281332;22;20015;-80
2023/10/17 08:28:31;;;;;;;2.75;2.03;;;;;;;;;;6253417;22;20330;-79
2023/10/17 08:30:51;;;;;;;2.45;1.85;;;;;;;;;;6253799;22;20015;-79
2023/10/17 08:33:19;;;;;;;2.38;2.17;;;;;;;;;;6251900;22;20023;-79
2023/10/17 08:35:53;;;;;;;1.92;1.50;;;;;;;;;;6253575;22;20022;-79
2023/10/17 08:38:19;;;;;;;2.55;1.90;;;;;;;;;;6254625;22;20011;-80
2023/10/17 08:40:49;;;;;;;1.83;1.30;;;;;;;;;;6248247;22;20020;-79
2023/10/17 08:43:16;;;;;;;3.80;1.88;;;;;;;;;;6223355;22;20063;-80
2023/10/17 08:45:46;;;;;;;2.00;1.30;;;;;;;;;;6277523;22;20322;-79
2023/10/17 08:48:12;;;;;;;2.28;1.50;;;;;;;;;;6250005;22;20012;-79
2023/10/17 08:50:43;;;;;;;4.13;1.50;;;;;;;;;;6257033;22;20012;-80
2023/10/17 08:53:13;;;;;;;2.22;1.08;;;;;;;;;;6257193;22;20179;-79
2023/10/17 08:55:40;;;;;;;;;;;;;;;;;;6254504;22;20019;-82
2023/10/17 08:58:08;;;;;;;1.95;1.08;;;;;;;;;;6257009;22;19941;-80
2023/10/17 09:03:23;;;;;;;1.63;1.10;;;;;;;;;;6284002;22;20020;-80
2023/10/17 09:11:14;;;;;;;1.08;0.80;;;;;;;;;;6278924;22;20023;-79
2023/10/17 09:14:10;;;;;;;1.08;0.88;;;;;;;;;;6279337;22;20022;-79
2023/10/17 09:16:34;;;;;;;2.05;1.20;;;;;;;;;;6279016;22;20116;-79
2023/10/17 09:19:14;;;;;;;1.45;1.20;;;;;;;;;;6283030;22;20043;-79
2023/10/17 09:21:45;;;;;;;3.63;1.23;;;;;;;;;;6282807;22;20014;-79
2023/10/17 09:24:29;;;;;;;1.92;1.08;;;;;;;;;;6282877;22;20371;-79
2023/10/17 09:26:56;;;;;;;2.30;0.90;;;;;;;;;;6278027;22;20018;-79
2023/10/17 09:29:22;;;;;;;2.30;1.50;;;;;;;;;;6256664;22;20399;-79
2023/10/17 09:31:50;;;;;;;2.97;0.95;;;;;;;;;;6262200;22;20015;-80
2023/10/17 09:34:17;;;;;;;1.63;0.80;;;;;;;;;;6263612;22;20038;-80
2023/10/17 09:36:44;;;;;;;2.40;0.80;;;;;;;;;;6292436;22;20019;-80
2023/10/17 09:39:14;;;;;;;2.30;0.80;;;;;;;;;;6267424;22;20020;-80
2023/10/17 09:41:41;;;;;;;0.88;0.80;;;;;;;;;;6266363;22;20018;-80
2023/10/17 09:44:12;;;;;;;0.60;0.52;;;;;;;;;;6266234;22;20050;-80
2023/10/17 09:46:39;;;;;;;1.73;0.80;;;;;;;;;;6266512;22;20022;-80
2023/10/17 09:49:05;;;;;;;3.22;0.75;;;;;;;;;;6293422;22;20011;-80
2023/10/17 09:51:36;;;;;;;2.42;0.90;;;;;;;;;;6241867;22;20016;-80
2023/10/17 09:54:04;;;;;;;0.98;0.88;;;;;;;;;;6291550;22;20023;-81
2023/10/17 09:56:41;;;;;;;0.68;0.50;;;;;;;;;;6291088;22;20020;-80
2023/10/17 09:59:12;;;;;;;0.85;0.55;;;;;;;;;;6262936;22;20035;-80
2023/10/17 10:01:39;;;;;;;1.58;0.50;;;;;;;;;;6260973;22;20092;-79
2023/10/17 10:04:07;;;;;;;0.85;0.50;;;;;;;;;;6289996;22;20047;-79
2023/10/17 10:06:33;;;;;;;1.05;0.55;;;;;;;;;;6264902;22;20047;-79
2023/10/17 10:09:14;;;;;;;0.88;0.70;;;;;;;;;;6291491;22;20095;-82
2023/10/17 10:11:49;;;;;;;0.40;0.32;;;;;;;;;;6266134;22;20027;-83
2023/10/17 10:14:16;;;;;;;0.88;0.40;;;;;;;;;;6261202;22;20015;-81
2023/10/17 10:16:55;;;;;;;1.90;0.73;;;;;;;;;;6280576;22;20043;-78
2023/10/17 10:19:21;;;;;;;1.27;0.50;;;;;;;;;;6284172;22;20047;-78
2023/10/17 10:21:54;;;;;;;0.63;0.45;;;;;;;;;;6282652;22;20047;-78
2023/10/17 10:24:31;;;;;;;2.08;0.73;;;;;;;;;;6255005;22;20012;-79
2023/10/17 10:27:15;;;;;;;0.98;0.50;;;;;;;;;;6260467;22;20045;-80
2023/10/17 10:29:42;;;;;;;1.50;0.80;;;;;;;;;;6285967;22;20456;-79
2023/10/17 10:32:28;;;;;;;1.88;0.75;;;;;;;;;;6259801;22;20019;-79
2023/10/17 10:34:54;;;;;;;1.30;1.05;;;;;;;;;;6285581;22;20023;-79
2023/10/17 10:37:20;;;;;;;2.38;0.80;;;;;;;;;;6286030;22;20026;-79
2023/10/17 10:40:26;;;;;;;0.95;0.40;;;;;;;;;;6280808;22;20034;-79
2023/10/17 10:42:53;;;;;;;0.30;0.28;;;;;;;;;;6154715;23;20048;-79
2023/10/17 10:45:50;;;;;;;0.93;0.50;;;;;;;;;;6155772;23;20494;-79
2023/10/17 10:48:17;;;;;;;2.17;0.45;;;;;;;;;;6243378;22;20022;-79
2023/10/17 10:50:44;;;;;;;2.67;0.45;;;;;;;;;;6282093;22;20027;-79
2023/10/17 10:53:20;;;;;;;0.40;0.40;;;;;;;;;;6285037;22;20043;-80
2023/10/17 10:55:52;;;;;;;0.80;0.32;;;;;;;;;;6283658;22;20012;-80
2023/10/17 10:58:18;;;;;;;1.17;0.40;;;;;;;;;;6282068;22;20099;-80
2023/10/17 11:00:45;;;;;;;0.98;0.38;;;;;;;;;;6284875;22;20011;-80
2023/10/17 11:03:11;;;;;;;0.55;0.45;;;;;;;;;;6287679;22;20026;-80
2023/10/17 11:05:52;;;;;;;1.52;0.43;;;;;;;;;;6285089;22;20014;-80
2023/10/17 11:08:20;;;;;;;0.98;0.60;;;;;;;;;;6257899;22;20020;-81
2023/10/17 11:10:46;;;;;;;1.30;0.60;;;;;;;;;;6289071;22;20043;-80
2023/10/17 11:13:13;;;;;;;1.25;0.55;;;;;;;;;;6258399;22;20433;-79
2023/10/17 11:15:40;;;;;;;3.08;0.60;;;;;;;;;;6230170;22;20086;-79
2023/10/17 11:18:07;;;;;;;2.03;0.47;;;;;;;;;;6279889;22;20035;-79
2023/10/17 11:20:35;;;;;;;0.80;0.68;;;;;;;;;;6253524;22;20012;-79
2023/10/17 11:23:02;;;;;;;1.13;0.55;;;;;;;;;;6250724;22;20015;-79
2023/10/17 11:25:31;;;;;;;0.90;0.82;;;;;;;;;;6254159;22;20015;-80
2023/10/17 11:28:01;;;;;;;1.08;0.50;;;;;;;;;;6261087;22;20060;-80
2023/10/17 11:30:40;;;;;;;1.05;0.70;;;;;;;;;;6259736;22;20016;-80
2023/10/17 11:33:10;;;;;;;0.55;0.40;;;;;;;;;;6288394;22;20020;-80
2023/10/17 11:35:37;;;;;;;1.38;0.68;;;;;;;;;;6290401;22;20016;-80
2023/10/17 11:38:03;;;;;;;1.70;0.55;;;;;;;;;;6289239;22;20019;-80
2023/10/17 11:40:47;;;;;;;0.70;0.50;;;;;;;;;;6289063;22;20444;-80
2023/10/17 11:43:21;;;;;;;1.67;0.70;;;;;;;;;;6288107;22;20018;-80
2023/10/17 11:45:48;;;;;;;0.82;0.43;;;;;;;;;;6289791;22;20061;-80
2023/10/17 11:48:26;;;;;;;1.13;0.50;;;;;;;;;;6288671;22;20657;-80
2023/10/17 11:51:18;;;;;;;0.73;0.40;;;;;;;;;;6261631;22;20008;-80
2023/10/17 11:54:05;;;;;;;0.68;0.60;;;;;;;;;;6290306;22;20328;-80
2023/10/17 11:56:35;;;;;;;0.70;0.30;;;;;;;;;;6289815;22;20042;-80
2023/10/17 11:59:02;;;;;;;0.98;0.50;;;;;;;;;;6288276;22;20038;-81
2023/10/17 12:01:29;;;;;;;2.25;0.90;;;;;;;;;;6287848;22;20012;-81
2023/10/17 12:03:57;;;;;;;0.50;0.45;;;;;;;;;;6286180;22;20028;-80
2023/10/17 12:06:26;;;;;;;0.85;0.43;;;;;;;;;;6262907;22;20024;-80
2023/10/17 12:08:53;;;;;;;1.58;0.50;;;;;;;;;;6290146;22;20024;-80
2023/10/17 12:11:19;;;;;;;1.90;0.80;;;;;;;;;;6261828;22;20479;-81
2023/10/17 12:13:46;;;;;;;1.20;0.50;;;;;;;;;;6264815;22;20011;-80
2023/10/17 12:16:13;;;;;;;1.58;0.65;;;;;;;;;;6260663;22;20046;-81
2023/10/17 12:18:39;;;;;;;1.23;0.50;;;;;;;;;;6278423;22;20011;-82
2023/10/17 12:21:14;;;;;;;1.60;0.60;;;;;;;;;;6251576;22;20019;-82
2023/10/17 12:23:40;;;;;;;1.45;0.50;;;;;;;;;;6255032;22;20338;-82
2023/10/17 12:26:19;;;;;;;1.67;0.45;;;;;;;;;;6285181;22;20008;-80
2023/10/17 12:28:46;;;;;;;1.95;0.50;;;;;;;;;;6288874;22;20012;-80
2023/10/17 12:31:16;;;;;;;0.65;0.52;;;;;;;;;;6287656;22;20016;-80
2023/10/17 12:33:42;;;;;;;0.82;0.63;;;;;;;;;;6289440;22;20114;-80
2023/10/17 12:36:08;;;;;;;1.58;0.60;;;;;;;;;;6261685;22;20026;-80
2023/10/17 12:38:34;;;;;;;1.35;0.77;;;;;;;;;;6260416;22;20019;-80
2023/10/17 12:41:03;;;;;;;1.50;0.60;;;;;;;;;;6261533;22;20023;-80
2023/10/17 12:43:29;;;;;;;1.00;0.70;;;;;;;;;;6260771;22;20016;-80
2023/10/17 12:45:55;;;;;;;0.88;0.65;;;;;;;;;;6259125;22;20012;-80
2023/10/17 12:48:22;;;;;;;1.23;0.60;;;;;;;;;;6259165;22;20011;-81
2023/10/17 12:50:48;;;;;;;1.55;0.60;;;;;;;;;;6257221;22;20016;-78
2023/10/17 12:53:14;;;;;;;0.93;0.60;;;;;;;;;;6283156;22;20101;-79
2023/10/17 12:55:40;;;;;;;1.45;0.70;;;;;;;;;;6281048;22;20094;-79
2023/10/17 12:58:18;;;;;;;0.90;0.60;;;;;;;;;;6282803;22;20022;-79
2023/10/17 13:00:47;;;;;;;2.35;0.57;;;;;;;;;;6280756;22;20014;-79
2023/10/17 13:03:13;;;;;;;1.15;0.43;;;;;;;;;;6279362;22;20008;-79
2023/10/17 13:05:39;;;;;;;0.65;0.50;;;;;;;;;;6280311;22;20038;-79
2023/10/17 13:08:05;;;;;;;0.80;0.50;;;;;;;;;;6280589;22;20016;-79
2023/10/17 13:10:32;;;;;;;1.05;0.60;;;;;;;;;;6255291;22;20024;-79
2023/10/17 13:12:58;;;;;;;1.75;0.52;;;;;;;;;;6253696;22;20054;-79
2023/10/17 13:15:25;;;;;;;1.65;0.70;;;;;;;;;;6253915;22;20012;-79
2023/10/17 13:17:55;;;;;;;2.80;0.60;;;;;;;;;;6276991;22;20345;-78
2023/10/17 13:20:32;;;;;;;1.20;0.60;;;;;;;;;;6280522;22;20055;-78
2023/10/17 13:23:03;;;;;;;1.38;0.47;;;;;;;;;;6281469;22;20015;-79
2023/10/17 13:25:41;;;;;;;1.75;0.52;;;;;;;;;;6283428;22;20015;-79
2023/10/17 13:28:08;;;;;;;2.05;0.43;;;;;;;;;;6281531;22;20382;-79
2023/10/17 13:30:34;;;;;;;0.50;0.43;;;;;;;;;;6282354;22;20016;-79
2023/10/17 13:33:00;;;;;;;1.15;0.80;;;;;;;;;;6228752;22;20015;-79
2023/10/17 13:35:27;;;;;;;1.40;0.40;;;;;;;;;;6281531;22;20012;-79
2023/10/17 13:37:54;;;;;;;1.40;0.55;;;;;;;;;;6280858;22;20037;-79
2023/10/17 13:40:21;;;;;;;1.98;0.57;;;;;;;;;;6280128;22;20453;-79
2023/10/17 13:42:50;;;;;;;0.70;0.50;;;;;;;;;;6252342;22;20065;-79
2023/10/17 13:45:16;;;;;;;0.50;0.50;;;;;;;;;;6253634;22;20019;-79
2023/10/17 13:47:42;;;;;;;0.75;0.40;;;;;;;;;;6253942;22;20050;-79
2023/10/17 13:50:13;;;;;;;1.40;0.60;;;;;;;;;;6281131;22;20012;-79
2023/10/17 13:52:41;;;;;;;0.80;0.68;;;;;;;;;;6282186;22;20015;-79
2023/10/17 13:55:09;;;;;;;2.15;0.70;;;;;;;;;;6254559;22;20027;-79
2023/10/17 13:57:36;;;;;;;1.33;0.47;;;;;;;;;;6254094;22;20023;-79
2023/10/17 14:00:05;;;;;;;1.92;0.68;;;;;;;;;;6279994;22;20099;-78
2023/10/17 14:02:32;;;;;;;2.45;0.80;;;;;;;;;;6254452;22;20317;-79
2023/10/17 14:04:57;;;;;;;1.10;0.32;;;;;;;;;;6280602;22;20358;-79
2023/10/17 14:07:24;;;;;;;0.90;0.65;;;;;;;;;;6250906;22;20023;-79
2023/10/17 14:09:55;;;;;;;1.13;0.52;;;;;;;;;;6280680;22;20024;-79
2023/10/17 14:12:21;;;;;;;0.93;0.50;;;;;;;;;;6278591;22;20082;-79
2023/10/17 14:14:47;;;;;;;1.55;0.65;;;;;;;;;;6279129;22;20391;-79
2023/10/17 14:17:13;;;;;;;0.52;0.52;;;;;;;;;;6276612;22;20197;-79
2023/10/17 14:19:45;;;;;;;0.85;0.60;;;;;;;;;;6283733;22;20018;-80
2023/10/17 14:22:21;;;;;;;1.40;0.65;;;;;;;;;;6282741;22;20043;-80
2023/10/17 14:27:22;;;;;;;1.67;0.70;;;;;;;;;;6279888;22;20016;-80
2023/10/17 14:29:49;;;;;;;1.75;0.70;;;;;;;;;;6280116;22;20023;-79
2023/10/17 14:32:16;;;;;;;3.60;0.90;;;;;;;;;;6279503;22;20016;-78
2023/10/17 14:34:42;;;;;;;1.63;0.65;;;;;;;;;;6249802;22;20357;-79
2023/10/17 14:37:08;;;;;;;2.20;0.73;;;;;;;;;;6248370;22;20016;-78
2023/10/17 14:39:34;;;;;;;1.27;0.70;;;;;;;;;;6275716;22;20019;-79
2023/10/17 14:42:00;;;;;;;3.17;0.70;;;;;;;;;;6248694;22;20034;-79
2023/10/17 14:44:29;;;;;;;1.10;0.98;;;;;;;;;;6248679;22;20012;-79
2023/10/17 14:46:57;;;;;;;2.50;0.90;;;;;;;;;;6249471;22;20089;-79
2023/10/17 14:49:24;;;;;;;2.08;0.63;;;;;;;;;;6225272;22;20325;-79
2023/10/17 14:51:50;;;;;;;1.33;0.60;;;;;;;;;;6247687;22;20026;-78
2023/10/17 14:54:16;;;;;;;1.52;0.77;;;;;;;;;;6247735;22;20019;-79
2023/10/17 14:56:42;;;;;;;1.35;0.98;;;;;;;;;;6277176;22;20306;-79
2023/10/17 14:59:09;;;;;;;2.83;0.70;;;;;;;;;;6276119;22;20016;-79
2023/10/17 15:01:36;;;;;;;0.90;0.70;;;;;;;;;;6276381;22;20019;-81
2023/10/17 15:04:02;;;;;;;1.42;0.80;;;;;;;;;;6279593;22;20042;-82
2023/10/17 15:06:29;;;;;;;1.08;0.80;;;;;;;;;;6278776;22;20031;-80
2023/10/17 15:08:55;;;;;;;0.68;0.57;;;;;;;;;;6280365;22;20020;-80
2023/10/17 15:11:21;;;;;;;1.23;0.52;;;;;;;;;;6283662;22;20046;-80
2023/10/17 15:13:47;;;;;;;1.75;0.75;;;;;;;;;;6281484;22;20472;-80
2023/10/17 15:16:20;;;;;;;1.27;0.68;;;;;;;;;;6257306;22;20050;-80
2023/10/17 15:18:47;;;;;;;0.82;0.68;;;;;;;;;;6282127;22;20042;-79
2023/10/17 15:21:15;;;;;;;1.80;0.70;;;;;;;;;;6287068;22;20008;-80
2023/10/17 15:23:44;;;;;;;1.30;0.60;;;;;;;;;;6259544;22;20012;-80
2023/10/17 15:26:10;;;;;;;1.05;0.63;;;;;;;;;;6258405;22;20023;-80
2023/10/17 15:28:37;;;;;;;0.75;0.50;;;;;;;;;;6258348;22;20011;-80
2023/10/17 15:31:03;;;;;;;1.27;0.73;;;;;;;;;;6259367;22;20322;-79
2023/10/17 15:33:30;;;;;;;2.15;1.20;;;;;;;;;;6256339;22;20015;-80
2023/10/17 15:35:56;;;;;;;1.33;0.93;;;;;;;;;;6258205;22;20062;-80
2023/10/17 15:38:22;;;;;;;2.72;0.77;;;;;;;;;;6284798;22;20314;-80
2023/10/17 15:40:51;;;;;;;1.17;0.70;;;;;;;;;;6282917;22;20034;-80
2023/10/17 15:43:17;;;;;;;1.23;0.77;;;;;;;;;;6286326;22;20016;-80
2023/10/17 15:45:51;;;;;;;1.45;0.85;;;;;;;;;;6283945;22;20047;-80
2023/10/17 15:48:17;;;;;;;2.53;0.75;;;;;;;;;;6282644;22;20337;-80
2023/10/17 15:50:44;;;;;;;1.10;0.65;;;;;;;;;;6255276;22;20023;-80
2023/10/17 15:53:10;;;;;;;1.42;0.68;;;;;;;;;;6251801;22;20022;-79
2023/10/17 15:55:36;;;;;;;2.15;0.90;;;;;;;;;;6251953;22;20484;-80
2023/10/17 15:58:03;;;;;;;1.17;0.90;;;;;;;;;;6279848;22;20065;-79
2023/10/17 16:00:29;;;;;;;0.77;0.57;;;;;;;;;;6255126;22;20012;-80
2023/10/17 16:02:55;;;;;;;3.10;0.95;;;;;;;;;;6258376;22;20043;-80
2023/10/17 16:05:21;;;;;;;2.25;0.90;;;;;;;;;;6255707;22;20020;-80
2023/10/17 16:07:47;;;;;;;0.80;0.63;;;;;;;;;;6283518;22;20015;-79
2023/10/17 16:10:14;;;;;;;2.17;0.80;;;;;;;;;;6254907;22;20020;-80
2023/10/17 16:12:41;;;;;;;1.58;0.70;;;;;;;;;;6281171;22;20016;-80
2023/10/17 16:15:08;;;;;;;2.05;0.63;;;;;;;;;;6256312;22;20015;-80
2023/10/17 16:17:34;;;;;;;2.03;0.70;;;;;;;;;;6254471;22;20038;-80
2023/10/17 16:20:23;;;;;;;1.55;0.73;;;;;;;;;;6281029;22;20023;-80
2023/10/17 16:22:49;;;;;;;1.83;0.75;;;;;;;;;;6278098;22;20012;-79
2023/10/17 16:25:16;;;;;;;2.83;1.02;;;;;;;;;;6276658;22;20026;-80
2023/10/17 16:27:47;;;;;;;1.60;1.50;;;;;;;;;;6255403;22;20314;-80
2023/10/17 16:30:13;;;;;;;1.33;1.02;;;;;;;;;;6283146;22;20384;-80
2023/10/17 16:32:39;;;;;;;1.63;0.80;;;;;;;;;;6282502;22;20054;-80
2023/10/17 16:35:06;;;;;;;2.17;0.93;;;;;;;;;;6252473;22;20020;-80
2023/10/17 16:37:36;;;;;;;2.13;0.93;;;;;;;;;;6252962;22;20046;-80
2023/10/17 16:40:03;;;;;;;2.03;0.85;;;;;;;;;;6251365;22;20019;-80
2023/10/17 16:42:32;;;;;;;0.65;0.60;;;;;;;;;;6280120;22;20066;-80
2023/10/17 16:44:59;;;;;;;1.27;0.85;;;;;;;;;;6280125;22;20449;-80
2023/10/17 16:47:25;;;;;;;1.60;0.90;;;;;;;;;;6253938;22;20016;-80
2023/10/17 16:49:55;;;;;;;2.08;0.90;;;;;;;;;;6283342;22;20012;-80
2023/10/17 16:52:22;;;;;;;2.33;1.48;;;;;;;;;;6284708;22;20090;-79
2023/10/17 16:54:48;;;;;;;2.35;1.60;;;;;;;;;;6255352;22;20024;-79
2023/10/17 16:57:15;;;;;;;1.92;1.30;;;;;;;;;;6283820;22;20464;-79